Terry, MT

7:37 AM MST on December 11, 2016 (GMT -0700)
Dawson Community | | Change Station
Active Advisory: Wind Chill Advisory

Elev 2457 ft 47.14 °N, 104.81 °W | Updated 41 minutes ago

Clear
Clear
-10 °F
Feels Like -26 °F
N
8
Wind Variable Wind from West

Today
High -- | Low -- °F
--% Chance of Precip.
Yesterday
High -- | Low -- °F
Precip. -- in
Pressure 30.18 in
Visibility 10.0 miles
Clouds Clear
Windchill -26 °F
Dew Point -14 °F
Humidity 82%
Rainfall 0.05 in
Snow Depth Not available.
7:36 AM 4:12 PM
Waxing Gibbous, 92% visible
METAR KGDV 111356Z AUTO 28007KT 10SM CLR M23/M26 A2997 RMK AO2 SNB22E34 SLP220 P0000 T12331256 FZRANO
Pressure 30.18 in
Visibility 10.0 miles
Clouds Clear
Windchill -26 °F
Dew Point -14 °F
Humidity 82%
Rainfall 0.05 in
Snow Depth Not available.
7:36 AM 4:12 PM
Waxing Gibbous, 92% visible
METAR KGDV 111356Z AUTO 28007KT 10SM CLR M23/M26 A2997 RMK AO2 SNB22E34 SLP220 P0000 T12331256 FZRANO

10-Day Weather Forecast

Almanac

Astronomy

Dec. 11, 2016 Rise Set
Actual Time
Civil Twilight
Nautical Twilight
Astronomical Twilight
Moon
Length of Visible Light
Length of Day
Tomorrow will be .
, % of the Moon is Illuminated

Today's Extremes

State Highs State Lows

Community

WunderPhotos

Upload Photos

1,956,719 photos uploaded!

WunderBlog® & News

Nearby

Air Quality

  Air Quality AQ Index Pollutant
Not available.

Snow Depth

Station Depth Elevation

Earthquake Activity

City Distance Mag. Time & Date
Minimum magnitude displayed is 2.5.

Coastal Water Temperatures

Place Temperature

Stations

Nearby Weather Stations

Station Location Temp. Windchill Dew Point Humidity Wind Precip. Elev Updated Type
                   

Watches & Warnings

Wind Chill Advisory
Issued: 2:58 AM MST Dec. 11, 2016 – National Weather Service

... Wind Chill Advisory in effect from 11 PM this evening to 5 PM
MST Monday...

The National Weather Service in Glasgow has issued a Wind Chill
Advisory... which is in effect from 11 PM this evening to 5 PM MST
Monday.

* Wind chill... as low as 27 below.

* Timing... late this evening through late Monday afternoon.

* Impacts... exposed skin can be frostbitten after 30 minutes of
exposure.

* Winds... northwest 5 to 15 mph with gusts up to 25 mph.

* Temperatures... 8 below to 9 above zero.

Precautionary/preparedness actions...

Dress adequately. Be sure to wear layered light weight and wind
proof clothing... and wear a hat and mittens for protection from
the dangers of frostbite.